createdAt,value
2022-12-16T00:02:25.459Z,5.78
2022-12-16T00:04:52.231Z,5.83
2022-12-16T00:07:20.236Z,5.83
2022-12-16T00:09:46.912Z,5.85
2022-12-16T00:12:13.742Z,5.79
2022-12-16T00:14:40.435Z,5.74
2022-12-16T00:17:07.272Z,5.61
2022-12-16T00:19:33.970Z,5.59
2022-12-16T00:22:00.695Z,5.64
2022-12-16T00:24:27.324Z,5.70
2022-12-16T00:26:54.554Z,5.72
2022-12-16T00:29:21.615Z,5.71
2022-12-16T00:31:48.489Z,5.75
2022-12-16T00:34:16.251Z,5.75
2022-12-16T00:36:43.817Z,5.69
2022-12-16T00:39:11.156Z,5.71
2022-12-16T00:41:37.968Z,5.74
2022-12-16T00:44:04.927Z,5.76
2022-12-16T00:46:31.670Z,5.77
2022-12-16T00:48:58.398Z,5.79
2022-12-16T00:51:25.200Z,5.72
2022-12-16T00:53:52.083Z,5.70
2022-12-16T00:56:19.055Z,5.72
2022-12-16T00:58:46.134Z,5.76
2022-12-16T01:01:13.169Z,5.75
2022-12-16T01:03:40.654Z,5.76
2022-12-16T01:06:13.011Z,5.76
2022-12-16T01:08:39.723Z,5.78
2022-12-16T01:11:06.470Z,5.80
2022-12-16T01:13:33.498Z,5.81
2022-12-16T01:16:02.336Z,5.79
2022-12-16T01:18:29.350Z,5.79
2022-12-16T01:21:05.706Z,5.79
2022-12-16T01:23:33.782Z,5.77
2022-12-16T01:26:01.695Z,5.74
2022-12-16T01:28:29.553Z,5.76
2022-12-16T01:31:02.003Z,5.71
2022-12-16T01:33:30.709Z,5.69
2022-12-16T01:36:08.350Z,5.70
2022-12-16T01:38:36.023Z,5.67
2022-12-16T01:41:03.430Z,5.59
2022-12-16T01:43:49.017Z,5.52
2022-12-16T01:46:23.849Z,5.57
2022-12-16T01:49:00.922Z,5.63
2022-12-16T01:51:32.964Z,5.67
2022-12-16T01:54:08.926Z,5.56
2022-12-16T01:56:39.293Z,5.53
2022-12-16T01:59:06.084Z,5.56
2022-12-16T02:01:33.003Z,5.54
2022-12-16T02:04:01.988Z,5.48
2022-12-16T02:06:30.218Z,5.39
2022-12-16T02:08:58.599Z,5.31
2022-12-16T02:11:36.175Z,5.28
2022-12-16T02:14:24.071Z,5.25
2022-12-16T02:17:20.712Z,5.27
2022-12-16T02:20:05.747Z,5.21
2022-12-16T02:22:50.882Z,5.16
2022-12-16T02:25:47.896Z,5.20
2022-12-16T02:28:33.630Z,5.29
2022-12-16T02:31:26.817Z,5.34
2022-12-16T02:33:56.790Z,5.39
2022-12-16T02:36:55.463Z,5.40
2022-12-16T02:39:30.988Z,5.39
2022-12-16T02:42:05.714Z,5.40
2022-12-16T02:44:46.033Z,5.38
2022-12-16T02:47:12.902Z,5.35
2022-12-16T02:49:48.428Z,5.32
2022-12-16T02:52:15.844Z,5.34
2022-12-16T02:54:51.968Z,5.38
2022-12-16T02:57:38.670Z,5.38
2022-12-16T03:00:09.214Z,5.35
2022-12-16T03:02:54.964Z,5.35
2022-12-16T03:05:31.424Z,5.32
2022-12-16T03:08:01.044Z,5.30
2022-12-16T03:10:30.770Z,5.29
2022-12-16T03:12:58.695Z,5.28
2022-12-16T03:15:27.327Z,5.29
2022-12-16T03:17:55.176Z,5.28
2022-12-16T03:20:27.689Z,5.25
2022-12-16T03:22:57.682Z,5.25
2022-12-16T03:25:26.745Z,5.30
2022-12-16T03:28:08.320Z,5.30
2022-12-16T03:30:40.839Z,5.29
2022-12-16T03:33:24.894Z,5.30
2022-12-16T03:35:57.801Z,5.28
2022-12-16T03:38:25.516Z,5.30
2022-12-16T03:40:52.839Z,5.31
2022-12-16T03:43:21.817Z,5.34
2022-12-16T03:45:52.133Z,5.32
2022-12-16T03:48:23.208Z,5.29
2022-12-16T03:50:50.036Z,5.26
2022-12-16T03:53:16.756Z,5.22
2022-12-16T03:55:43.520Z,5.20
2022-12-16T03:58:10.505Z,5.19
2022-12-16T04:00:37.361Z,5.22
2022-12-16T04:03:04.266Z,5.24
2022-12-16T04:05:31.137Z,5.25
2022-12-16T04:08:01.801Z,5.24
2022-12-16T04:10:47.676Z,5.24
2022-12-16T04:13:33.266Z,5.22
2022-12-16T04:16:18.943Z,5.20
2022-12-16T04:19:05.694Z,5.17
2022-12-16T04:21:51.134Z,5.13
2022-12-16T04:24:19.769Z,5.08
2022-12-16T04:27:15.123Z,5.07
2022-12-16T04:30:01.487Z,5.10
2022-12-16T04:32:48.413Z,5.12
2022-12-16T04:35:33.581Z,5.15
2022-12-16T04:38:18.723Z,5.12
2022-12-16T04:41:04.186Z,5.12
2022-12-16T04:43:49.600Z,5.15
2022-12-16T04:46:34.991Z,5.16
2022-12-16T04:49:20.221Z,5.14
2022-12-16T04:52:05.697Z,5.11
2022-12-16T04:54:51.069Z,5.12
2022-12-16T04:57:36.321Z,5.12
2022-12-16T05:00:22.739Z,5.12
2022-12-16T05:03:08.927Z,5.13
2022-12-16T05:05:54.431Z,5.15
2022-12-16T05:08:39.698Z,5.15
2022-12-16T05:11:25.025Z,5.15
2022-12-16T05:14:10.501Z,5.15
2022-12-16T05:16:55.921Z,5.15
2022-12-16T05:19:41.241Z,5.18
2022-12-16T05:22:26.616Z,5.17
2022-12-16T05:25:11.968Z,5.16
2022-12-16T05:27:57.537Z,5.16
2022-12-16T05:30:42.624Z,5.14
2022-12-16T05:33:27.962Z,5.13
2022-12-16T05:36:13.361Z,5.10
2022-12-16T05:38:58.680Z,5.11
2022-12-16T05:41:44.160Z,5.12
2022-12-16T05:44:29.167Z,5.14
2022-12-16T05:47:14.518Z,5.12
2022-12-16T05:49:59.953Z,5.07
2022-12-16T05:52:46.043Z,5.04
2022-12-16T05:55:34.027Z,4.99
2022-12-16T05:58:19.637Z,5.00
2022-12-16T06:01:05.130Z,5.03
2022-12-16T06:03:50.491Z,5.03
2022-12-16T06:06:35.870Z,5.04
2022-12-16T06:09:22.327Z,5.04
2022-12-16T06:12:08.636Z,5.05
2022-12-16T06:14:54.049Z,5.04
2022-12-16T06:17:40.804Z,5.03
2022-12-16T06:20:26.589Z,5.02
2022-12-16T06:23:15.417Z,4.98
2022-12-16T06:26:01.113Z,4.96
2022-12-16T06:28:46.349Z,4.95
2022-12-16T06:31:32.392Z,4.97
2022-12-16T06:34:17.714Z,4.99
2022-12-16T06:37:02.921Z,4.98
2022-12-16T06:39:52.777Z,4.96
2022-12-16T06:42:38.776Z,4.96
2022-12-16T06:45:34.493Z,4.96
2022-12-16T06:48:25.815Z,4.66
2022-12-16T06:51:14.929Z,4.26
2022-12-16T06:54:03.299Z,3.87
2022-12-16T06:56:49.333Z,3.51
2022-12-16T06:59:34.592Z,3.36
2022-12-16T07:02:20.124Z,3.03
2022-12-16T07:05:06.670Z,2.65
2022-12-16T07:07:52.379Z,2.32
2022-12-16T07:10:37.905Z,2.15
2022-12-16T07:13:23.293Z,2.16
2022-12-16T07:16:08.910Z,2.20
2022-12-16T07:18:54.288Z,2.15
2022-12-16T07:21:39.531Z,1.92
2022-12-16T07:24:24.959Z,1.75
2022-12-16T07:27:18.211Z,1.58
2022-12-16T07:30:03.820Z,1.40
2022-12-16T07:32:48.842Z,1.26
2022-12-16T07:35:34.178Z,1.18
2022-12-16T07:38:19.410Z,1.15
2022-12-16T07:41:06.721Z,1.03
2022-12-16T07:43:51.965Z,1.21
2022-12-16T07:46:37.382Z,1.33
2022-12-16T07:49:22.679Z,1.19
2022-12-16T07:52:08.317Z,1.07
2022-12-16T07:54:55.233Z,1.04
2022-12-16T07:57:41.259Z,1.07
2022-12-16T08:00:26.963Z,1.20
2022-12-16T08:03:13.641Z,1.37
2022-12-16T08:05:58.989Z,1.57
2022-12-16T08:08:44.310Z,1.71
2022-12-16T08:11:29.613Z,1.87
2022-12-16T08:14:14.824Z,1.93
2022-12-16T08:17:00.337Z,1.89
2022-12-16T08:19:48.759Z,1.82
2022-12-16T08:22:36.394Z,1.83
2022-12-16T08:25:25.926Z,1.89
2022-12-16T08:28:15.480Z,1.91
2022-12-16T08:31:00.874Z,1.91
2022-12-16T08:33:46.226Z,1.90
2022-12-16T08:36:31.617Z,1.87
2022-12-16T08:39:16.778Z,1.89
2022-12-16T08:42:02.029Z,1.96
2022-12-16T08:44:47.385Z,2.04
2022-12-16T08:47:32.694Z,2.08
2022-12-16T08:50:17.992Z,2.02
2022-12-16T08:53:03.348Z,1.82
2022-12-16T08:55:48.643Z,1.41
2022-12-16T08:58:33.921Z,1.32
2022-12-16T09:01:19.338Z,1.32
2022-12-16T09:04:05.210Z,1.35
2022-12-16T09:06:50.458Z,1.41
2022-12-16T09:09:35.653Z,1.60
2022-12-16T09:12:21.477Z,1.70
2022-12-16T09:15:06.794Z,1.79
2022-12-16T09:17:52.238Z,1.83
2022-12-16T09:20:38.299Z,1.88
2022-12-16T09:23:23.619Z,1.75
2022-12-16T09:26:09.039Z,1.65
2022-12-16T09:29:08.162Z,1.56
2022-12-16T09:31:53.496Z,1.80
2022-12-16T09:34:38.797Z,2.10
2022-12-16T09:37:24.274Z,2.35
2022-12-16T09:40:09.480Z,2.48
2022-12-16T09:42:57.660Z,2.55
2022-12-16T09:45:46.048Z,2.62
2022-12-16T09:48:37.066Z,2.60
2022-12-16T09:51:23.649Z,2.46
2022-12-16T09:54:10.922Z,2.44
2022-12-16T09:56:56.115Z,2.60
2022-12-16T09:59:46.627Z,2.58
2022-12-16T10:02:36.120Z,2.36
2022-12-16T10:05:22.261Z,2.35
2022-12-16T10:08:19.057Z,2.48
2022-12-16T10:11:33.296Z,2.51
2022-12-16T10:14:29.850Z,2.50
2022-12-16T10:17:24.821Z,2.34
2022-12-16T10:20:22.901Z,2.42
2022-12-16T10:23:19.959Z,2.53
2022-12-16T10:26:31.579Z,2.54
2022-12-16T10:29:25.090Z,2.41
2022-12-16T10:32:10.405Z,2.19
2022-12-16T10:34:56.186Z,2.22
2022-12-16T10:37:53.133Z,2.09
2022-12-16T10:40:44.042Z,2.01
2022-12-16T10:43:30.291Z,2.04
2022-12-16T10:46:16.263Z,1.95
2022-12-16T10:49:02.361Z,1.78
2022-12-16T10:51:48.152Z,1.70
2022-12-16T10:54:39.496Z,1.79
2022-12-16T10:57:34.402Z,1.58
2022-12-16T11:00:34.409Z,1.55
2022-12-16T11:03:38.810Z,1.61
2022-12-16T11:06:25.396Z,1.89
2022-12-16T11:09:14.590Z,2.10
2022-12-16T11:12:09.083Z,2.36
2022-12-16T11:15:27.709Z,2.58
2022-12-16T11:18:24.699Z,2.98
2022-12-16T11:21:31.469Z,3.26
2022-12-16T11:24:26.538Z,3.35
2022-12-16T11:27:13.787Z,3.50
2022-12-16T11:30:13.143Z,3.51
2022-12-16T11:33:02.692Z,3.39
2022-12-16T11:35:50.342Z,3.33
2022-12-16T11:38:42.959Z,3.34
2022-12-16T11:41:37.718Z,3.30
2022-12-16T11:44:24.046Z,3.27
2022-12-16T11:47:11.581Z,3.24
2022-12-16T11:49:57.403Z,3.10
2022-12-16T11:52:42.746Z,2.97
2022-12-16T11:58:55.677Z,2.71
2022-12-16T12:02:01.773Z,2.69
2022-12-16T12:04:47.176Z,2.71
2022-12-16T12:07:44.488Z,2.79
2022-12-16T12:10:42.464Z,2.88
2022-12-16T12:13:45.894Z,2.96
2022-12-16T12:16:47.595Z,3.04
2022-12-16T12:19:32.645Z,3.17
2022-12-16T12:22:23.110Z,3.11
2022-12-16T12:25:16.624Z,2.98
2022-12-16T12:28:11.061Z,3.00
2022-12-16T12:31:33.427Z,2.99
2022-12-16T12:34:36.059Z,3.00
2022-12-16T12:37:28.589Z,2.95
2022-12-16T12:40:41.264Z,2.96
2022-12-16T12:43:43.437Z,2.82
2022-12-16T12:46:52.098Z,2.95
2022-12-16T12:49:40.599Z,3.07
2022-12-16T12:52:59.571Z,3.14
2022-12-16T12:55:55.633Z,3.09
2022-12-16T12:58:42.184Z,2.83
2022-12-16T13:01:28.069Z,2.73
2022-12-16T13:04:35.928Z,2.71
2022-12-16T13:07:22.669Z,2.51
2022-12-16T13:10:34.557Z,2.21
2022-12-16T13:13:41.198Z,2.09
2022-12-16T13:16:30.333Z,2.08
2022-12-16T13:19:54.415Z,2.13
2022-12-16T13:22:54.665Z,2.04
2022-12-16T13:25:52.072Z,1.86
2022-12-16T13:28:46.209Z,1.75
2022-12-16T13:31:32.983Z,1.77
2022-12-16T13:34:26.613Z,1.67
2022-12-16T13:37:21.382Z,1.45
2022-12-16T13:40:38.700Z,1.36
2022-12-16T13:43:24.531Z,1.36
2022-12-16T13:46:15.656Z,1.31
2022-12-16T13:49:01.495Z,1.33
2022-12-16T13:51:55.994Z,1.23
2022-12-16T13:54:47.520Z,1.23
2022-12-16T13:57:33.168Z,1.24
2022-12-16T14:00:19.481Z,1.19
2022-12-16T14:03:05.030Z,1.17
2022-12-16T14:05:55.166Z,1.14
2022-12-16T14:08:42.474Z,1.21
2022-12-16T14:12:13.223Z,1.22
2022-12-16T14:15:07.083Z,1.23
2022-12-16T14:18:06.653Z,1.20
2022-12-16T14:21:08.170Z,1.19
2022-12-16T14:24:00.882Z,1.19
2022-12-16T14:26:46.568Z,1.17
2022-12-16T14:29:44.628Z,1.16
2022-12-16T14:32:42.010Z,0.98
2022-12-16T14:35:36.113Z,0.81
2022-12-16T14:38:41.374Z,0.87
2022-12-16T14:41:30.739Z,1.01
2022-12-16T14:44:16.145Z,1.05
2022-12-16T14:47:01.665Z,1.05
2022-12-16T14:49:48.407Z,1.08
2022-12-16T14:52:45.599Z,1.10
2022-12-16T14:55:31.881Z,1.02
2022-12-16T14:58:30.910Z,1.07
2022-12-16T15:01:16.731Z,1.04
2022-12-16T15:04:06.299Z,1.05
2022-12-16T15:06:55.950Z,1.04
2022-12-16T15:09:53.589Z,1.03
2022-12-16T15:12:43.862Z,0.97
2022-12-16T15:15:36.307Z,0.90
2022-12-16T15:18:22.236Z,0.89
2022-12-16T15:21:13.296Z,0.86
2022-12-16T15:24:03.669Z,0.86
2022-12-16T15:26:51.732Z,0.86
2022-12-16T15:30:03.250Z,0.87
2022-12-16T15:32:54.683Z,0.85
2022-12-16T15:35:44.635Z,0.87
2022-12-16T15:38:46.153Z,0.87
2022-12-16T15:41:40.548Z,0.86
2022-12-16T15:44:34.254Z,0.93
2022-12-16T15:47:19.483Z,1.04
2022-12-16T15:50:06.423Z,1.11
2022-12-16T15:52:58.792Z,1.12
2022-12-16T15:55:46.478Z,1.13
2022-12-16T15:58:40.362Z,1.13
2022-12-16T16:01:26.699Z,1.16
2022-12-16T16:04:14.247Z,0.98
2022-12-16T16:07:10.002Z,0.97
2022-12-16T16:09:58.234Z,0.85
2022-12-16T16:12:54.348Z,0.57
2022-12-16T16:15:43.094Z,0.59
2022-12-16T16:18:28.429Z,0.78
2022-12-16T16:21:13.675Z,0.94
2022-12-16T16:23:59.044Z,1.01
2022-12-16T16:26:45.860Z,0.99
2022-12-16T16:29:31.305Z,1.09
2022-12-16T16:32:16.596Z,1.28
2022-12-16T16:35:01.891Z,1.49
2022-12-16T16:37:47.267Z,1.65
2022-12-16T16:40:52.220Z,1.82
2022-12-16T16:43:40.590Z,1.97
2022-12-16T16:46:38.591Z,2.12
2022-12-16T16:49:43.167Z,2.25
2022-12-16T16:52:34.209Z,2.35
2022-12-16T16:55:19.489Z,2.45
2022-12-16T16:58:04.958Z,2.52
2022-12-16T17:00:50.434Z,2.56
2022-12-16T17:03:36.401Z,2.59
2022-12-16T17:06:22.762Z,2.65
2022-12-16T17:09:08.169Z,2.70
2022-12-16T17:11:53.429Z,2.78
2022-12-16T17:14:39.879Z,2.83
2022-12-16T17:17:27.168Z,2.89
2022-12-16T17:20:13.672Z,2.95
2022-12-16T17:22:59.089Z,3.00
2022-12-16T17:25:44.535Z,3.02
2022-12-16T17:28:29.946Z,3.07
2022-12-16T17:31:15.321Z,3.08
2022-12-16T17:34:01.029Z,3.13
2022-12-16T17:36:46.373Z,3.18
2022-12-16T17:39:31.601Z,3.22
2022-12-16T17:42:17.061Z,3.24
2022-12-16T17:45:02.314Z,3.25
2022-12-16T17:47:48.178Z,3.26
2022-12-16T17:50:33.444Z,3.29
2022-12-16T17:53:19.099Z,3.29
2022-12-16T17:56:04.575Z,3.33
2022-12-16T17:58:50.415Z,3.34
2022-12-16T18:01:35.790Z,3.36
2022-12-16T18:04:21.300Z,3.38
2022-12-16T18:07:06.700Z,3.40
2022-12-16T18:09:52.157Z,3.42
2022-12-16T18:12:38.797Z,3.45
2022-12-16T18:15:28.529Z,3.46
2022-12-16T18:18:14.988Z,3.48
2022-12-16T18:21:00.257Z,3.50
2022-12-16T18:23:47.464Z,3.51
2022-12-16T18:26:32.870Z,3.51
2022-12-16T18:29:18.172Z,3.52
2022-12-16T18:32:03.592Z,3.52
2022-12-16T18:34:48.949Z,3.51
2022-12-16T18:37:34.258Z,3.51
2022-12-16T18:40:19.706Z,3.50
2022-12-16T18:43:04.950Z,3.50
2022-12-16T18:45:50.302Z,3.47
2022-12-16T18:48:35.739Z,3.45
2022-12-16T18:51:20.793Z,3.43
2022-12-16T18:54:18.868Z,3.41
2022-12-16T18:57:04.245Z,3.40
2022-12-16T18:59:49.344Z,3.36
2022-12-16T19:02:35.172Z,3.31
2022-12-16T19:05:20.814Z,3.28
2022-12-16T19:08:08.895Z,3.24
2022-12-16T19:10:57.801Z,3.21
2022-12-16T19:13:42.911Z,3.19
2022-12-16T19:16:28.803Z,3.16
2022-12-16T19:19:19.663Z,3.14
2022-12-16T19:22:05.715Z,3.08
2022-12-16T19:24:51.102Z,3.03
2022-12-16T19:27:37.092Z,2.98
2022-12-16T19:30:22.505Z,2.95
2022-12-16T19:33:07.849Z,2.92
2022-12-16T19:38:58.646Z,2.89
2022-12-16T19:41:43.883Z,2.88
2022-12-16T19:44:29.444Z,2.87
2022-12-16T19:47:15.493Z,2.87
2022-12-16T19:50:02.473Z,2.87
2022-12-16T19:52:49.098Z,2.88
2022-12-16T19:55:34.571Z,2.88
2022-12-16T19:58:19.879Z,2.87
2022-12-16T20:01:05.791Z,2.88
2022-12-16T20:03:52.343Z,2.90
2022-12-16T20:06:40.518Z,2.92
2022-12-16T20:09:25.861Z,2.93
2022-12-16T20:12:11.185Z,2.94
2022-12-16T20:18:01.766Z,2.96
2022-12-16T20:20:47.248Z,2.96
2022-12-16T20:23:32.541Z,2.96
2022-12-16T20:26:19.080Z,2.97
2022-12-16T20:29:04.487Z,2.98
2022-12-16T20:31:50.256Z,2.98
2022-12-16T20:34:35.668Z,2.99
2022-12-16T20:37:21.025Z,2.99
2022-12-16T20:40:06.364Z,3.02
2022-12-16T20:42:51.583Z,3.04
2022-12-16T20:45:39.015Z,3.03
2022-12-16T20:48:24.346Z,3.03
2022-12-16T20:51:13.473Z,3.04
2022-12-16T20:53:58.714Z,3.05
2022-12-16T20:56:43.979Z,3.05
2022-12-16T20:59:32.139Z,3.05
2022-12-16T21:02:31.619Z,3.07
2022-12-16T21:05:23.089Z,3.07
2022-12-16T21:08:14.662Z,3.06
2022-12-16T21:10:59.906Z,3.06
2022-12-16T21:13:45.920Z,3.07
2022-12-16T21:16:31.465Z,3.09
2022-12-16T21:19:16.885Z,3.10
2022-12-16T21:22:02.359Z,3.08
2022-12-16T21:24:47.799Z,3.09
2022-12-16T21:27:32.821Z,3.11
2022-12-16T21:30:18.294Z,3.10
2022-12-16T21:33:03.849Z,3.10
2022-12-16T21:35:49.282Z,3.10
2022-12-16T21:38:34.609Z,3.08
2022-12-16T21:41:20.060Z,3.10
2022-12-16T21:44:05.303Z,3.08
2022-12-16T21:46:51.907Z,3.08
2022-12-16T21:49:37.070Z,3.07
2022-12-16T21:52:25.044Z,3.08
2022-12-16T21:55:10.410Z,3.08
2022-12-16T21:57:56.435Z,3.07
2022-12-16T22:00:42.042Z,3.06
2022-12-16T22:03:27.452Z,3.07
2022-12-16T22:06:12.610Z,3.07
2022-12-16T22:08:58.202Z,3.06
2022-12-16T22:11:43.477Z,3.04
2022-12-16T22:14:28.655Z,3.04
2022-12-16T22:17:14.194Z,3.02
2022-12-16T22:19:59.593Z,3.02
2022-12-16T22:22:44.916Z,3.02
2022-12-16T22:25:30.198Z,3.02
2022-12-16T22:28:15.520Z,3.01
2022-12-16T22:31:00.738Z,3.01
2022-12-16T22:33:45.924Z,3.00
2022-12-16T22:36:20.178Z,2.89
2022-12-16T22:36:31.369Z,2.98
2022-12-16T22:39:16.549Z,2.96
2022-12-16T22:42:02.072Z,2.94
2022-12-16T22:44:47.433Z,2.94
2022-12-16T22:47:32.878Z,2.92
2022-12-16T22:50:18.435Z,2.88
2022-12-16T22:53:03.925Z,2.84
2022-12-16T22:55:49.408Z,2.83
2022-12-16T22:58:34.736Z,2.81
2022-12-16T23:01:20.157Z,2.80
2022-12-16T23:04:05.614Z,2.78
2022-12-16T23:06:51.938Z,2.79
2022-12-16T23:09:37.653Z,2.77
2022-12-16T23:12:22.891Z,2.74
2022-12-16T23:15:08.361Z,2.73
2022-12-16T23:17:55.095Z,2.71
2022-12-16T23:20:41.460Z,2.71
2022-12-16T23:23:26.707Z,2.69
2022-12-16T23:26:19.779Z,2.68
2022-12-16T23:29:08.663Z,2.66
2022-12-16T23:31:56.428Z,2.63
2022-12-16T23:34:45.781Z,2.61
2022-12-16T23:37:33.768Z,2.61
2022-12-16T23:40:20.243Z,2.58
2022-12-16T23:43:05.652Z,2.55
2022-12-16T23:45:51.112Z,2.53
2022-12-16T23:48:36.951Z,2.50
2022-12-16T23:51:22.201Z,2.49
2022-12-16T23:54:07.900Z,2.46
2022-12-16T23:56:56.389Z,2.44
2022-12-16T23:59:43.276Z,2.41
